Terminal Aerodrome Forecast
Issued by NWS Melbourne, FL

Home | Current Version | Previous Version | Text Only | Print | Product List | Glossary On
Versions: 1 2 3 4 5 6 7 8 9 10 11 12 13 14 15 16 17
223
FTUS42 KMLB 091145
TAFMLB
TAF
KMLB 091145Z 0912/1012 34010KT P6SM VCSH SCT070 OVC110
     FM091500 01011G19KT P6SM SCT070 SCT120 BKN200
     FM100400 36010KT P6SM SCT050 SCT250
     FM100800 36008KT P6SM SCT050 BKN100=

USA.gov is the U.S. government's official web portal to all federal, state and local government web resources and services.